createdAt,value
2022-10-22T00:01:14.290Z,23.97
2022-10-22T00:03:43.069Z,23.89
2022-10-22T00:06:10.445Z,23.87
2022-10-22T00:08:38.388Z,23.79
2022-10-22T00:11:12.327Z,23.81
2022-10-22T00:13:39.470Z,23.81
2022-10-22T00:16:06.828Z,23.84
2022-10-22T00:18:33.905Z,23.85
2022-10-22T00:21:02.387Z,23.89
2022-10-22T00:23:29.228Z,23.91
2022-10-22T00:25:56.475Z,23.95
2022-10-22T00:28:24.145Z,24.01
2022-10-22T00:30:56.789Z,24.08
2022-10-22T00:33:23.887Z,24.05
2022-10-22T00:35:50.898Z,24.05
2022-10-22T00:38:19.255Z,24.07
2022-10-22T00:40:47.289Z,24.00
2022-10-22T00:43:18.655Z,23.97
2022-10-22T00:45:46.817Z,23.91
2022-10-22T00:48:19.904Z,23.95
2022-10-22T00:50:52.717Z,23.97
2022-10-22T00:53:26.411Z,23.95
2022-10-22T00:55:54.705Z,23.95
2022-10-22T00:58:27.428Z,23.94
2022-10-22T01:00:56.212Z,23.93
2022-10-22T01:03:23.937Z,23.89
2022-10-22T01:05:57.933Z,23.85
2022-10-22T01:08:40.644Z,23.87
2022-10-22T01:11:19.232Z,23.85
2022-10-22T01:13:58.187Z,23.88
2022-10-22T01:16:43.465Z,23.94
2022-10-22T01:19:39.265Z,24.04
2022-10-22T01:22:18.713Z,24.04
2022-10-22T01:25:03.165Z,24.11
2022-10-22T01:27:47.600Z,24.14
2022-10-22T01:30:17.254Z,24.08
2022-10-22T01:32:50.717Z,24.08
2022-10-22T01:35:27.640Z,24.14
2022-10-22T01:37:59.885Z,24.11
2022-10-22T01:40:28.986Z,24.11
2022-10-22T01:42:59.125Z,24.11
2022-10-22T01:45:30.770Z,24.12
2022-10-22T01:48:12.135Z,24.16
2022-10-22T01:51:02.105Z,24.21
2022-10-22T01:53:41.263Z,24.14
2022-10-22T01:56:34.190Z,24.12
2022-10-22T01:59:13.519Z,24.05
2022-10-22T02:01:57.366Z,24.11
2022-10-22T02:04:33.538Z,24.12
2022-10-22T02:07:07.826Z,24.14
2022-10-22T02:09:36.521Z,24.15
2022-10-22T02:12:06.992Z,24.19
2022-10-22T02:14:38.708Z,24.22
2022-10-22T02:17:14.024Z,24.25
2022-10-22T02:19:52.946Z,24.24
2022-10-22T02:22:21.012Z,24.22
2022-10-22T02:24:49.804Z,24.28
2022-10-22T02:27:26.945Z,24.29
2022-10-22T02:30:04.654Z,24.26
2022-10-22T02:32:40.052Z,24.22
2022-10-22T02:35:11.328Z,24.24
2022-10-22T02:37:40.317Z,24.21
2022-10-22T02:40:09.124Z,24.19
2022-10-22T02:42:39.195Z,24.21
2022-10-22T02:45:07.578Z,24.19
2022-10-22T02:47:35.863Z,24.24
2022-10-22T02:50:06.542Z,24.22
2022-10-22T02:52:36.480Z,24.22
2022-10-22T02:55:04.835Z,24.21
2022-10-22T02:57:32.660Z,24.18
2022-10-22T03:00:03.982Z,24.18
2022-10-22T03:02:31.128Z,24.14
2022-10-22T03:04:59.602Z,24.14
2022-10-22T03:07:26.875Z,24.05
2022-10-22T03:09:53.688Z,24.04
2022-10-22T03:12:20.563Z,24.01
2022-10-22T03:14:47.680Z,24.00
2022-10-22T03:17:14.976Z,23.93
2022-10-22T03:19:41.947Z,23.91
2022-10-22T03:22:15.599Z,23.89
2022-10-22T03:24:47.711Z,23.88
2022-10-22T03:27:16.505Z,23.78
2022-10-22T03:29:45.093Z,23.73
2022-10-22T03:32:13.088Z,23.78
2022-10-22T03:34:39.900Z,23.79
2022-10-22T03:37:06.965Z,23.82
2022-10-22T03:39:37.182Z,23.79
2022-10-22T03:42:07.001Z,23.78
2022-10-22T03:44:37.087Z,23.78
2022-10-22T03:47:04.245Z,23.77
2022-10-22T03:49:31.267Z,23.77
2022-10-22T03:51:58.544Z,23.81
2022-10-22T03:54:25.960Z,23.79
2022-10-22T03:56:54.748Z,23.85
2022-10-22T03:59:21.812Z,23.84
2022-10-22T04:01:48.820Z,23.88
2022-10-22T04:04:15.817Z,23.89
2022-10-22T04:06:43.037Z,23.89
2022-10-22T04:09:10.291Z,23.88
2022-10-22T04:11:37.374Z,23.87
2022-10-22T04:14:06.277Z,23.82
2022-10-22T04:16:33.150Z,23.84
2022-10-22T04:19:00.292Z,23.84
2022-10-22T04:21:27.076Z,23.84
2022-10-22T04:23:54.209Z,23.74
2022-10-22T04:26:21.774Z,23.71
2022-10-22T04:28:50.878Z,23.64
2022-10-22T04:31:22.327Z,23.60
2022-10-22T04:33:54.765Z,23.53
2022-10-22T04:36:22.405Z,23.53
2022-10-22T04:38:54.503Z,23.47
2022-10-22T04:41:25.300Z,23.37
2022-10-22T04:43:53.753Z,23.33
2022-10-22T04:46:24.303Z,23.28
2022-10-22T04:48:52.376Z,23.28
2022-10-22T04:51:22.805Z,23.30
2022-10-22T04:53:50.640Z,23.24
2022-10-22T04:56:20.186Z,23.26
2022-10-22T04:58:49.219Z,23.23
2022-10-22T05:01:19.610Z,23.13
2022-10-22T05:04:17.536Z,23.05
2022-10-22T05:06:45.347Z,22.95
2022-10-22T05:09:14.975Z,22.96
2022-10-22T05:11:44.947Z,22.99
2022-10-22T05:14:13.072Z,22.98
2022-10-22T05:16:40.138Z,22.93
2022-10-22T05:19:08.563Z,22.95
2022-10-22T05:21:37.965Z,22.98
2022-10-22T05:24:06.251Z,23.00
2022-10-22T05:26:33.574Z,23.05
2022-10-22T05:29:00.782Z,23.10
2022-10-22T05:31:27.642Z,23.12
2022-10-22T05:33:56.021Z,23.16
2022-10-22T05:36:23.582Z,23.17
2022-10-22T05:38:52.074Z,23.17
2022-10-22T05:41:22.377Z,23.17
2022-10-22T05:43:50.080Z,23.16
2022-10-22T05:46:22.869Z,23.16
2022-10-22T05:51:42.131Z,22.98
2022-10-22T05:54:18.129Z,22.98
2022-10-22T05:56:45.729Z,22.91
2022-10-22T05:59:12.805Z,22.85
2022-10-22T06:01:41.395Z,22.86
2022-10-22T06:04:12.550Z,22.88
2022-10-22T06:06:44.411Z,22.83
2022-10-22T06:09:17.508Z,22.85
2022-10-22T06:11:45.481Z,22.85
2022-10-22T06:14:13.449Z,22.79
2022-10-22T06:16:41.109Z,22.72
2022-10-22T06:19:09.907Z,22.73
2022-10-22T06:21:36.856Z,22.69
2022-10-22T06:24:04.329Z,22.65
2022-10-22T06:26:32.721Z,22.64
2022-10-22T06:29:00.188Z,22.62
2022-10-22T06:31:28.112Z,22.68
2022-10-22T06:33:56.518Z,22.72
2022-10-22T06:36:24.595Z,22.72
2022-10-22T06:38:53.389Z,22.79
2022-10-22T06:41:24.230Z,22.86
2022-10-22T06:43:55.997Z,22.93
2022-10-22T06:46:25.409Z,22.95
2022-10-22T06:48:59.708Z,22.92
2022-10-22T06:51:28.095Z,22.85
2022-10-22T06:53:55.988Z,22.85
2022-10-22T06:56:27.517Z,22.88
2022-10-22T06:58:58.468Z,22.93
2022-10-22T07:01:32.563Z,23.00
2022-10-22T07:04:00.453Z,23.02
2022-10-22T07:06:28.845Z,23.09
2022-10-22T07:08:57.829Z,23.12
2022-10-22T07:11:27.750Z,23.17
2022-10-22T07:13:57.484Z,23.23
2022-10-22T07:16:29.562Z,23.24
2022-10-22T07:19:00.086Z,23.24
2022-10-22T07:21:27.748Z,23.24
2022-10-22T07:23:54.804Z,23.22
2022-10-22T07:26:22.380Z,23.20
2022-10-22T07:28:49.412Z,23.26
2022-10-22T07:31:19.343Z,23.30
2022-10-22T07:33:46.884Z,23.28
2022-10-22T07:36:16.613Z,23.27
2022-10-22T07:38:44.264Z,23.27
2022-10-22T07:41:11.938Z,23.27
2022-10-22T07:43:41.453Z,23.33
2022-10-22T07:46:09.010Z,23.33
2022-10-22T07:51:28.197Z,23.34
2022-10-22T07:53:55.518Z,23.33
2022-10-22T07:56:22.416Z,23.42
2022-10-22T07:58:49.318Z,23.47
2022-10-22T08:01:16.651Z,23.54
2022-10-22T08:03:45.205Z,23.49
2022-10-22T08:06:14.317Z,23.51
2022-10-22T08:08:41.625Z,23.51
2022-10-22T08:11:10.348Z,23.56
2022-10-22T08:13:41.546Z,23.60
2022-10-22T08:16:11.125Z,23.61
2022-10-22T08:18:38.069Z,23.63
2022-10-22T08:21:06.952Z,23.67
2022-10-22T08:23:33.903Z,23.75
2022-10-22T08:26:00.758Z,23.82
2022-10-22T08:28:30.695Z,23.89
2022-10-22T08:30:57.692Z,23.98
2022-10-22T08:33:24.791Z,24.02
2022-10-22T08:35:52.761Z,24.09
2022-10-22T08:38:21.146Z,24.16
2022-10-22T08:40:53.731Z,24.22
2022-10-22T08:43:59.562Z,24.25
2022-10-22T08:46:46.359Z,24.26
2022-10-22T08:49:20.368Z,24.33
2022-10-22T08:51:48.046Z,24.35
2022-10-22T08:54:28.819Z,24.39
2022-10-22T08:57:19.220Z,24.35
2022-10-22T08:59:54.035Z,24.32
2022-10-22T09:02:40.572Z,24.42
2022-10-22T09:05:27.949Z,24.63
2022-10-22T09:07:57.164Z,24.75
2022-10-22T09:10:32.744Z,24.91
2022-10-22T09:12:59.753Z,25.02
2022-10-22T09:15:26.788Z,25.18
2022-10-22T09:18:11.340Z,25.44
2022-10-22T09:20:46.986Z,25.47
2022-10-22T09:23:30.520Z,25.58
2022-10-22T09:26:00.138Z,25.69
2022-10-22T09:28:27.102Z,25.86
2022-10-22T09:30:54.620Z,26.03
2022-10-22T09:33:26.216Z,26.26
2022-10-22T09:35:55.789Z,26.53
2022-10-22T09:38:28.497Z,26.83
2022-10-22T09:41:00.765Z,27.38
2022-10-22T09:43:27.748Z,28.00
2022-10-22T09:46:01.941Z,28.88
2022-10-22T09:48:33.299Z,29.63
2022-10-22T09:51:18.362Z,30.27
2022-10-22T09:53:55.077Z,30.95
2022-10-22T09:56:33.953Z,31.71
2022-10-22T09:59:04.400Z,32.36
2022-10-22T10:01:34.234Z,32.90
2022-10-22T10:04:09.988Z,33.38
2022-10-22T10:06:41.107Z,33.88
2022-10-22T10:09:16.699Z,34.40
2022-10-22T10:11:55.569Z,34.80
2022-10-22T10:14:35.208Z,35.33
2022-10-22T10:17:12.664Z,35.92
2022-10-22T10:20:01.478Z,36.50
2022-10-22T10:22:50.920Z,36.77
2022-10-22T10:25:52.481Z,36.54
2022-10-22T10:28:35.899Z,36.39
2022-10-22T10:31:19.842Z,36.60
2022-10-22T10:34:04.797Z,37.01
2022-10-22T10:36:43.806Z,37.34
2022-10-22T10:39:23.977Z,37.78
2022-10-22T10:42:01.736Z,38.05
2022-10-22T10:44:59.448Z,38.50
2022-10-22T10:48:03.641Z,38.74
2022-10-22T10:50:41.428Z,38.74
2022-10-22T10:53:21.665Z,38.87
2022-10-22T10:56:01.579Z,39.05
2022-10-22T10:58:45.442Z,39.14
2022-10-22T11:01:27.578Z,39.49
2022-10-22T11:04:41.814Z,39.82
2022-10-22T11:07:23.380Z,40.06
2022-10-22T11:10:09.763Z,40.34
2022-10-22T11:12:45.035Z,40.75
2022-10-22T11:15:27.324Z,41.35
2022-10-22T11:18:05.203Z,41.53
2022-10-22T11:20:46.183Z,41.41
2022-10-22T11:23:22.011Z,41.29
2022-10-22T11:25:50.993Z,41.09
2022-10-22T11:28:25.584Z,41.22
2022-10-22T11:31:01.888Z,41.29
2022-10-22T11:33:52.696Z,40.99
2022-10-22T11:36:28.512Z,39.90
2022-10-22T11:38:56.039Z,38.81
2022-10-22T11:41:28.601Z,37.55
2022-10-22T11:44:10.116Z,36.54
2022-10-22T11:46:54.328Z,35.66
2022-10-22T11:49:41.644Z,35.03
2022-10-22T11:52:27.119Z,34.78
2022-10-22T11:54:56.809Z,35.04
2022-10-22T11:57:35.591Z,35.95
2022-10-22T12:00:27.407Z,36.97
2022-10-22T12:03:04.143Z,37.86
2022-10-22T12:05:36.960Z,38.47
2022-10-22T12:08:26.311Z,38.88
2022-10-22T12:11:20.257Z,38.54
2022-10-22T12:14:16.589Z,37.88
2022-10-22T12:16:56.326Z,37.30
2022-10-22T12:19:32.406Z,36.60
2022-10-22T12:22:14.698Z,35.81
2022-10-22T12:24:43.646Z,35.24
2022-10-22T12:27:22.592Z,34.82
2022-10-22T12:29:55.260Z,34.82
2022-10-22T12:32:29.173Z,34.67
2022-10-22T12:34:56.048Z,34.36
2022-10-22T12:37:24.431Z,34.04
2022-10-22T12:39:52.004Z,33.57
2022-10-22T12:42:19.149Z,33.10
2022-10-22T12:44:46.322Z,32.75
2022-10-22T12:47:17.775Z,32.39
2022-10-22T12:49:50.361Z,31.94
2022-10-22T12:52:22.061Z,31.54
2022-10-22T12:54:52.470Z,31.16
2022-10-22T12:57:21.351Z,30.74
2022-10-22T12:59:51.843Z,30.41
2022-10-22T13:02:22.870Z,30.14
2022-10-22T13:05:17.459Z,29.78
2022-10-22T13:07:48.858Z,29.42
2022-10-22T13:10:24.748Z,29.20
2022-10-22T13:12:56.711Z,29.01
2022-10-22T13:15:37.530Z,28.81
2022-10-22T13:18:16.168Z,28.58
2022-10-22T13:20:55.982Z,28.55
2022-10-22T13:23:25.815Z,28.47
2022-10-22T13:26:04.625Z,28.47
2022-10-22T13:28:32.980Z,28.33
2022-10-22T13:31:10.054Z,28.30
2022-10-22T13:33:40.329Z,28.34
2022-10-22T13:36:14.130Z,28.48
2022-10-22T13:38:42.663Z,28.51
2022-10-22T13:41:22.299Z,28.44
2022-10-22T13:43:50.457Z,28.36
2022-10-22T13:46:18.380Z,28.18
2022-10-22T13:48:47.868Z,27.96
2022-10-22T13:51:18.448Z,27.72
2022-10-22T13:53:47.061Z,27.55
2022-10-22T13:56:15.578Z,27.55
2022-10-22T13:58:46.277Z,27.63
2022-10-22T14:01:21.298Z,27.79
2022-10-22T14:03:50.543Z,27.73
2022-10-22T14:06:19.416Z,27.62
2022-10-22T14:08:53.538Z,27.55
2022-10-22T14:11:20.840Z,27.51
2022-10-22T14:13:49.041Z,27.46
2022-10-22T14:16:21.840Z,27.41
2022-10-22T14:18:49.357Z,27.48
2022-10-22T14:21:18.617Z,27.59
2022-10-22T14:23:47.850Z,27.55
2022-10-22T14:26:23.772Z,27.48
2022-10-22T14:34:15.123Z,27.12
2022-10-22T14:36:42.675Z,26.98
2022-10-22T14:39:09.792Z,26.86
2022-10-22T14:41:37.516Z,26.86
2022-10-22T14:44:06.365Z,26.81
2022-10-22T14:46:33.351Z,26.80
2022-10-22T14:49:00.348Z,26.81
2022-10-22T14:51:27.304Z,26.90
2022-10-22T14:53:54.928Z,26.91
2022-10-22T14:56:21.697Z,26.90
2022-10-22T14:58:49.841Z,26.86
2022-10-22T15:01:18.121Z,26.81
2022-10-22T15:03:45.276Z,26.79
2022-10-22T15:06:12.372Z,26.80
2022-10-22T15:08:39.774Z,26.77
2022-10-22T15:11:10.091Z,26.79
2022-10-22T15:13:38.026Z,26.79
2022-10-22T15:16:08.581Z,26.77
2022-10-22T15:18:36.841Z,26.74
2022-10-22T15:21:06.993Z,26.69
2022-10-22T15:23:36.003Z,26.60
2022-10-22T15:26:02.884Z,26.44
2022-10-22T15:28:29.689Z,26.40
2022-10-22T15:30:59.113Z,26.29
2022-10-22T15:33:28.054Z,26.20
2022-10-22T15:35:57.570Z,26.12
2022-10-22T15:41:04.553Z,26.13
2022-10-22T15:43:33.153Z,26.19
2022-10-22T15:46:11.874Z,26.28
2022-10-22T15:48:38.926Z,26.29
2022-10-22T15:51:13.865Z,26.39
2022-10-22T15:53:41.640Z,26.44
2022-10-22T15:56:09.713Z,26.51
2022-10-22T15:58:36.639Z,26.54
2022-10-22T16:01:08.127Z,26.59
2022-10-22T16:03:35.703Z,26.56
2022-10-22T16:06:03.857Z,26.51
2022-10-22T16:08:32.782Z,26.56
2022-10-22T16:11:00.129Z,26.57
2022-10-22T16:13:27.046Z,26.59
2022-10-22T16:15:54.317Z,26.57
2022-10-22T16:18:21.596Z,26.57
2022-10-22T16:20:48.423Z,26.56
2022-10-22T16:23:15.477Z,26.53
2022-10-22T16:25:44.253Z,26.57
2022-10-22T16:28:12.433Z,26.50
2022-10-22T16:30:39.610Z,26.47
2022-10-22T16:33:08.376Z,26.50
2022-10-22T16:35:40.158Z,26.51
2022-10-22T16:38:06.902Z,26.41
2022-10-22T16:40:34.107Z,26.36
2022-10-22T16:43:02.813Z,26.40
2022-10-22T16:45:29.699Z,26.37
2022-10-22T16:47:56.548Z,26.36
2022-10-22T16:50:23.415Z,26.36
2022-10-22T16:52:50.277Z,26.33
2022-10-22T16:55:17.832Z,26.29
2022-10-22T17:00:42.762Z,26.12
2022-10-22T17:03:11.701Z,25.88
2022-10-22T17:05:38.795Z,25.74
2022-10-22T17:08:05.941Z,25.61
2022-10-22T17:10:32.989Z,25.52
2022-10-22T17:12:59.833Z,25.47
2022-10-22T17:15:26.791Z,25.42
2022-10-22T17:17:55.063Z,25.30
2022-10-22T17:22:57.616Z,24.97
2022-10-22T17:25:35.583Z,24.89
2022-10-22T17:28:03.043Z,24.80
2022-10-22T17:30:32.566Z,24.72
2022-10-22T17:33:01.361Z,24.70
2022-10-22T17:35:28.549Z,24.67
2022-10-22T17:37:55.588Z,24.65
2022-10-22T17:40:23.089Z,24.63
2022-10-22T17:42:50.061Z,24.56
2022-10-22T17:45:17.438Z,24.56
2022-10-22T17:47:44.492Z,24.48
2022-10-22T17:50:13.268Z,24.48
2022-10-22T17:52:40.861Z,24.43
2022-10-22T17:55:09.207Z,24.52
2022-10-22T17:57:42.990Z,24.52
2022-10-22T18:00:15.012Z,24.53
2022-10-22T18:02:42.798Z,24.49
2022-10-22T18:05:12.608Z,24.51
2022-10-22T18:07:39.790Z,24.56
2022-10-22T18:10:11.147Z,24.63
2022-10-22T18:12:38.107Z,24.66
2022-10-22T18:15:06.444Z,24.73
2022-10-22T18:17:35.931Z,24.70
2022-10-22T18:20:13.024Z,24.67
2022-10-22T18:22:47.497Z,24.66
2022-10-22T18:25:14.749Z,24.69
2022-10-22T18:27:42.245Z,24.70
2022-10-22T18:30:10.525Z,24.72
2022-10-22T18:32:37.427Z,24.72
2022-10-22T18:35:08.187Z,24.69
2022-10-22T18:37:35.613Z,24.69
2022-10-22T18:40:06.682Z,24.77
2022-10-22T18:42:37.823Z,24.72
2022-10-22T18:45:07.994Z,24.67
2022-10-22T18:47:34.944Z,24.66
2022-10-22T18:50:02.036Z,24.46
2022-10-22T18:52:29.158Z,24.42
2022-10-22T18:54:58.885Z,24.38
2022-10-22T18:57:29.768Z,24.21
2022-10-22T19:00:04.333Z,24.22
2022-10-22T19:02:34.479Z,24.15
2022-10-22T19:05:01.629Z,24.09
2022-10-22T19:07:37.894Z,24.15
2022-10-22T19:10:06.890Z,24.09
2022-10-22T19:12:36.598Z,24.14
2022-10-22T19:15:05.087Z,24.15
2022-10-22T19:17:32.141Z,24.15
2022-10-22T19:19:58.976Z,24.11
2022-10-22T19:22:26.173Z,24.09
2022-10-22T19:24:53.423Z,24.08
2022-10-22T19:27:20.371Z,24.05
2022-10-22T19:29:48.865Z,24.05
2022-10-22T19:32:16.089Z,24.02
2022-10-22T19:34:43.463Z,24.01
2022-10-22T19:37:10.776Z,23.97
2022-10-22T19:39:37.922Z,23.97
2022-10-22T19:42:05.174Z,23.95
2022-10-22T19:44:32.375Z,23.97
2022-10-22T19:47:00.862Z,23.91
2022-10-22T19:49:28.146Z,23.85
2022-10-22T19:51:55.099Z,23.87
2022-10-22T19:54:22.000Z,23.85
2022-10-22T19:56:50.189Z,23.79
2022-10-22T19:59:19.813Z,23.78
2022-10-22T20:01:49.752Z,23.78
2022-10-22T20:04:19.070Z,23.77
2022-10-22T20:06:46.838Z,23.73
2022-10-22T20:09:14.182Z,23.71
2022-10-22T20:11:41.508Z,23.67
2022-10-22T20:14:08.358Z,23.68
2022-10-22T20:16:35.759Z,23.64
2022-10-22T20:19:06.167Z,23.61
2022-10-22T20:21:37.173Z,23.56
2022-10-22T20:24:04.750Z,23.50
2022-10-22T20:26:32.160Z,23.44
2022-10-22T20:28:59.198Z,23.40
2022-10-22T20:31:28.866Z,23.33
2022-10-22T20:34:00.897Z,23.27
2022-10-22T20:36:29.842Z,23.23
2022-10-22T20:41:53.129Z,23.09
2022-10-22T20:44:21.343Z,23.09
2022-10-22T20:46:48.505Z,23.10
2022-10-22T20:49:17.735Z,23.02
2022-10-22T20:51:44.916Z,23.07
2022-10-22T20:54:14.778Z,23.05
2022-10-22T20:56:43.499Z,23.05
2022-10-22T20:59:11.459Z,23.03
2022-10-22T21:01:41.138Z,22.98
2022-10-22T21:04:08.782Z,22.96
2022-10-22T21:06:36.378Z,22.91
2022-10-22T21:09:04.832Z,22.93
2022-10-22T21:11:33.620Z,22.89
2022-10-22T21:14:00.591Z,22.88
2022-10-22T21:16:27.835Z,22.88
2022-10-22T21:18:54.951Z,22.86
2022-10-22T21:21:24.189Z,22.89
2022-10-22T21:23:51.507Z,22.88
2022-10-22T21:26:19.212Z,22.91
2022-10-22T21:28:48.119Z,22.86
2022-10-22T21:31:20.406Z,22.81
2022-10-22T21:33:49.209Z,22.77
2022-10-22T21:36:20.272Z,22.79
2022-10-22T21:38:49.937Z,22.81
2022-10-22T21:41:19.880Z,22.85
2022-10-22T21:43:49.017Z,22.82
2022-10-22T21:46:19.172Z,22.85
2022-10-22T21:48:51.891Z,22.88
2022-10-22T21:51:20.405Z,22.82
2022-10-22T21:53:48.478Z,22.82
2022-10-22T21:56:18.559Z,22.85
2022-10-22T21:58:46.037Z,22.83
2022-10-22T22:01:16.255Z,22.82
2022-10-22T22:03:45.972Z,22.83
2022-10-22T22:06:13.712Z,22.77
2022-10-22T22:08:41.494Z,22.71
2022-10-22T22:11:11.471Z,22.69
2022-10-22T22:14:03.126Z,22.62
2022-10-22T22:16:33.414Z,22.59
2022-10-22T22:21:31.926Z,22.56
2022-10-22T22:23:59.011Z,22.58
2022-10-22T22:26:29.891Z,22.58
2022-10-22T22:28:59.263Z,22.56
2022-10-22T22:31:30.236Z,22.56
2022-10-22T22:34:05.766Z,22.56
2022-10-22T22:36:36.415Z,22.54
2022-10-22T22:39:09.612Z,22.56
2022-10-22T22:41:36.876Z,22.56
2022-10-22T22:44:04.440Z,22.56
2022-10-22T22:46:31.445Z,22.56
2022-10-22T22:48:58.508Z,22.58
2022-10-22T22:51:27.126Z,22.55
2022-10-22T22:53:54.392Z,22.55
2022-10-22T22:56:24.579Z,22.49
2022-10-22T22:58:51.665Z,22.48
2022-10-22T23:01:23.001Z,22.51
2022-10-22T23:03:56.424Z,22.45
2022-10-22T23:06:26.571Z,22.42
2022-10-22T23:08:56.865Z,22.45
2022-10-22T23:11:27.067Z,22.42
2022-10-22T23:13:58.009Z,22.41
2022-10-22T23:16:28.432Z,22.41
2022-10-22T23:18:56.700Z,22.40
2022-10-22T23:21:27.957Z,22.42
2022-10-22T23:23:58.662Z,22.44
2022-10-22T23:26:29.054Z,22.47
2022-10-22T23:29:00.992Z,22.44
2022-10-22T23:31:27.905Z,22.40
2022-10-22T23:33:54.921Z,22.37
2022-10-22T23:36:21.969Z,22.35
2022-10-22T23:38:50.602Z,22.35
2022-10-22T23:41:17.918Z,22.35
2022-10-22T23:43:44.954Z,22.37
2022-10-22T23:46:13.787Z,22.41
2022-10-22T23:48:41.205Z,22.37
2022-10-22T23:51:10.505Z,22.33
2022-10-22T23:53:38.487Z,22.34
2022-10-22T23:56:10.046Z,22.33
2022-10-22T23:58:38.227Z,22.30
